Time;durP1;ratioP1;P1;durP2;ratioP2;P2;SDS_P1;SDS_P2;PMS_P1;PMS_P2;Temp;Humidity;BMP_temperature;BMP_pressure;BME280_temperature;BME280_humidity;BME280_pressure;Samples;Min_cycle;Max_cycle;Signal;HPM_P1;HPM_P2
2024/01/04 00:01:16;;;;;;;9.57;8.97;;;7.80;99.90;;;;;;4896534;29;20251;-74
2024/01/04 00:03:43;;;;;;;10.13;9.33;;;7.90;99.90;;;;;;4896281;29;20272;-74
2024/01/04 00:06:10;;;;;;;10.20;9.50;;;7.90;99.90;;;;;;4897088;29;20211;-74
2024/01/04 00:08:37;;;;;;;10.37;9.50;;;7.90;99.90;;;;;;4894861;29;20235;-74
2024/01/04 00:11:06;;;;;;;10.47;9.77;;;7.90;99.90;;;;;;4895329;29;20208;-75
2024/01/04 00:13:33;;;;;;;9.93;9.23;;;7.90;99.90;;;;;;4895487;29;20598;-74
2024/01/04 00:16:01;;;;;;;10.20;9.30;;;7.80;99.90;;;;;;4896503;29;20723;-75
2024/01/04 00:18:28;;;;;;;10.43;9.47;;;7.70;99.90;;;;;;4896263;29;20201;-75
2024/01/04 00:20:55;;;;;;;10.07;9.30;;;7.70;99.90;;;;;;4896816;29;20200;-74
2024/01/04 00:23:22;;;;;;;10.03;9.20;;;7.60;99.90;;;;;;4895404;29;20258;-75
2024/01/04 00:25:49;;;;;;;9.77;9.17;;;7.60;99.90;;;;;;4895249;29;20201;-75
2024/01/04 00:28:15;;;;;;;10.20;9.40;;;7.60;99.90;;;;;;4894847;29;20376;-74
2024/01/04 00:30:42;;;;;;;10.00;9.27;;;7.70;99.90;;;;;;4895150;29;20285;-74
2024/01/04 00:33:11;;;;;;;9.77;9.10;;;7.70;99.90;;;;;;4894380;29;20236;-74
2024/01/04 00:35:37;;;;;;;9.80;9.20;;;7.70;99.90;;;;;;4894806;29;20228;-74
2024/01/04 00:38:04;;;;;;;10.40;9.70;;;7.70;99.90;;;;;;4891236;29;20209;-74
2024/01/04 00:40:33;;;;;;;10.07;9.47;;;7.70;99.90;;;;;;4894728;29;20212;-74
2024/01/04 00:42:59;;;;;;;10.10;9.30;;;7.70;99.90;;;;;;4895647;29;20348;-74
2024/01/04 00:45:27;;;;;;;10.17;9.50;;;7.70;99.90;;;;;;4895862;29;20219;-75
2024/01/04 00:47:54;;;;;;;10.07;9.37;;;7.80;99.90;;;;;;4894879;29;20213;-74
2024/01/04 00:50:22;;;;;;;10.10;9.50;;;7.80;99.90;;;;;;4894567;29;20197;-74
2024/01/04 00:52:49;;;;;;;10.00;9.10;;;7.80;99.90;;;;;;4894036;29;20220;-75
2024/01/04 00:55:16;;;;;;;9.50;8.90;;;7.80;99.90;;;;;;4894727;29;20197;-75
2024/01/04 00:57:43;;;;;;;10.47;9.40;;;7.70;99.90;;;;;;4896447;29;20200;-75
2024/01/04 01:00:11;;;;;;;9.83;9.20;;;7.70;99.90;;;;;;4894706;29;20211;-74
2024/01/04 01:02:37;;;;;;;10.00;9.20;;;7.70;99.90;;;;;;4894440;29;20236;-75
2024/01/04 01:05:05;;;;;;;9.60;9.10;;;7.70;99.90;;;;;;4897030;29;20235;-74
2024/01/04 01:07:33;;;;;;;10.10;9.30;;;7.60;99.90;;;;;;4898197;29;20224;-75
2024/01/04 01:10:00;;;;;;;9.50;8.90;;;7.60;99.90;;;;;;4899714;29;20200;-74
2024/01/04 01:12:26;;;;;;;10.00;9.23;;;7.70;99.90;;;;;;4897858;29;20232;-74
2024/01/04 01:14:53;;;;;;;10.00;9.20;;;7.70;99.90;;;;;;4898578;29;20204;-74
2024/01/04 01:17:20;;;;;;;9.90;9.20;;;7.70;99.90;;;;;;4898245;29;20715;-74
2024/01/04 01:19:47;;;;;;;10.00;9.30;;;7.70;99.90;;;;;;4898133;29;20204;-74
2024/01/04 01:22:14;;;;;;;9.90;9.10;;;7.70;99.90;;;;;;4897883;29;20695;-74
2024/01/04 01:24:42;;;;;;;10.20;9.40;;;7.70;99.90;;;;;;4897981;29;20426;-74
2024/01/04 01:27:08;;;;;;;9.53;8.77;;;7.70;99.90;;;;;;4897854;29;20216;-75
2024/01/04 01:29:35;;;;;;;9.37;8.77;;;7.80;99.90;;;;;;4898057;29;20564;-75
2024/01/04 01:32:02;;;;;;;9.73;9.00;;;7.80;99.90;;;;;;4897885;29;20209;-74
2024/01/04 01:34:29;;;;;;;9.77;9.07;;;7.80;99.90;;;;;;4896918;29;20253;-74
2024/01/04 01:36:57;;;;;;;9.60;9.10;;;7.90;99.90;;;;;;4897944;29;20628;-75
2024/01/04 01:39:24;;;;;;;9.83;9.13;;;7.90;99.90;;;;;;4897817;29;20574;-75
2024/01/04 01:41:53;;;;;;;9.63;8.93;;;7.90;99.90;;;;;;4898828;29;20201;-74
2024/01/04 01:44:19;;;;;;;10.17;9.47;;;7.90;99.90;;;;;;4897680;29;20224;-74
2024/01/04 01:46:46;;;;;;;10.00;9.13;;;7.90;99.90;;;;;;4897828;29;20208;-75
2024/01/04 01:49:13;;;;;;;9.93;9.30;;;7.90;99.90;;;;;;4897370;29;20700;-75
2024/01/04 01:51:40;;;;;;;9.60;9.10;;;7.90;99.90;;;;;;4897064;29;20215;-74
2024/01/04 01:54:08;;;;;;;10.07;9.27;;;7.90;99.90;;;;;;4897501;29;20228;-75
2024/01/04 01:56:35;;;;;;;9.33;8.73;;;7.90;99.90;;;;;;4897298;29;20700;-74
2024/01/04 01:59:03;;;;;;;9.70;9.00;;;7.90;99.90;;;;;;4897584;29;20204;-75
2024/01/04 02:01:30;;;;;;;9.70;8.90;;;8.00;99.90;;;;;;4897031;29;20200;-74
2024/01/04 02:03:57;;;;;;;9.70;9.00;;;7.90;99.90;;;;;;4896761;29;20225;-74
2024/01/04 02:06:24;;;;;;;9.47;8.90;;;8.00;99.90;;;;;;4897106;29;20740;-74
2024/01/04 02:08:50;;;;;;;9.67;8.80;;;8.00;99.90;;;;;;4897128;29;20224;-75
2024/01/04 02:11:17;;;;;;;10.00;9.20;;;8.10;99.90;;;;;;4897243;29;20287;-74
2024/01/04 02:13:44;;;;;;;9.87;9.17;;;8.00;99.90;;;;;;4897051;29;20231;-75
2024/01/04 02:16:12;;;;;;;9.90;9.10;;;8.00;99.90;;;;;;4897278;29;20208;-76
2024/01/04 02:18:40;;;;;;;9.07;8.47;;;8.00;99.90;;;;;;4896805;29;20227;-75
2024/01/04 02:21:08;;;;;;;9.70;9.00;;;8.00;99.90;;;;;;4896938;29;20201;-75
2024/01/04 02:23:36;;;;;;;9.93;9.10;;;7.90;99.90;;;;;;4899983;29;20239;-74
2024/01/04 02:26:03;;;;;;;9.70;9.10;;;7.80;99.90;;;;;;4898298;29;20664;-74
2024/01/04 02:28:30;;;;;;;9.87;9.00;;;7.80;99.90;;;;;;4897729;29;20691;-75
2024/01/04 02:30:56;;;;;;;9.63;9.03;;;7.70;99.90;;;;;;4899241;29;20235;-75
2024/01/04 02:33:23;;;;;;;9.20;8.70;;;7.70;99.90;;;;;;4897038;29;20224;-74
2024/01/04 02:35:50;;;;;;;9.23;8.73;;;7.70;99.90;;;;;;4896824;29;20688;-75
2024/01/04 02:38:17;;;;;;;9.50;8.90;;;7.60;99.90;;;;;;4896808;29;20197;-75
2024/01/04 02:40:46;;;;;;;9.60;9.00;;;7.60;99.90;;;;;;4898478;29;20208;-75
2024/01/04 02:43:13;;;;;;;9.30;8.60;;;7.60;99.90;;;;;;4896745;29;20742;-75
2024/01/04 02:45:40;;;;;;;9.37;8.77;;;7.50;99.90;;;;;;4896501;29;20216;-74
2024/01/04 02:48:07;;;;;;;9.50;8.90;;;7.50;99.90;;;;;;4897569;29;20642;-76
2024/01/04 02:50:34;;;;;;;10.10;9.40;;;7.50;99.90;;;;;;4896151;29;20228;-75
2024/01/04 02:53:01;;;;;;;9.83;9.00;;;7.40;99.90;;;;;;4897288;29;20244;-75
2024/01/04 02:55:28;;;;;;;9.90;9.20;;;7.40;99.90;;;;;;4896123;29;20200;-75
2024/01/04 02:57:56;;;;;;;9.83;9.20;;;7.40;99.90;;;;;;4896121;29;20200;-75
2024/01/04 03:00:22;;;;;;;11.10;10.30;;;7.40;99.90;;;;;;4896259;29;20212;-75
2024/01/04 03:02:49;;;;;;;9.40;8.80;;;7.30;99.90;;;;;;4897194;29;20276;-74
2024/01/04 03:05:18;;;;;;;9.57;8.97;;;7.30;99.90;;;;;;4896832;29;20291;-75
2024/01/04 03:07:45;;;;;;;10.13;9.53;;;7.30;99.90;;;;;;4897238;29;20200;-74
2024/01/04 03:10:12;;;;;;;10.80;10.00;;;7.30;99.90;;;;;;4896008;29;20249;-75
2024/01/04 03:12:39;;;;;;;10.20;9.57;;;7.30;99.90;;;;;;4920942;23;20799;-77
2024/01/04 03:15:09;;;;;;;10.07;9.40;;;7.30;99.90;;;;;;4888925;29;20638;-78
2024/01/04 03:17:36;;;;;;;10.13;9.43;;;7.30;99.90;;;;;;4891363;29;20205;-77
2024/01/04 03:20:04;;;;;;;10.10;9.50;;;7.20;99.90;;;;;;4889247;29;20204;-78
2024/01/04 03:22:30;;;;;;;10.10;9.50;;;7.20;99.90;;;;;;4890866;29;20205;-77
2024/01/04 03:24:57;;;;;;;9.90;9.40;;;7.20;99.90;;;;;;4878896;29;20204;-77
2024/01/04 03:27:24;;;;;;;10.17;9.33;;;7.20;99.90;;;;;;4876439;29;20228;-78
2024/01/04 03:29:52;;;;;;;9.70;9.20;;;7.20;99.90;;;;;;4878155;29;20276;-77
2024/01/04 03:32:20;;;;;;;9.80;9.20;;;7.20;99.90;;;;;;4877031;29;20204;-77
2024/01/04 03:34:47;;;;;;;9.80;9.20;;;7.20;99.90;;;;;;4876502;29;20213;-78
2024/01/04 03:37:14;;;;;;;10.17;9.47;;;7.20;99.90;;;;;;4878667;29;20837;-77
2024/01/04 03:39:41;;;;;;;9.80;9.20;;;7.20;99.90;;;;;;4878233;29;20263;-77
2024/01/04 03:42:08;;;;;;;9.77;9.27;;;7.10;99.90;;;;;;4881086;29;20196;-78
2024/01/04 03:44:36;;;;;;;9.27;8.73;;;7.10;99.90;;;;;;4877037;29;20599;-76
2024/01/04 03:47:04;;;;;;;10.00;9.40;;;7.10;99.90;;;;;;4871512;29;20559;-76
2024/01/04 03:49:32;;;;;;;10.57;9.87;;;7.10;99.90;;;;;;4876512;29;20285;-77
2024/01/04 03:51:59;;;;;;;10.37;9.77;;;7.10;99.90;;;;;;4876926;29;20205;-77
2024/01/04 03:54:26;;;;;;;9.80;9.30;;;7.10;99.90;;;;;;4878865;29;20692;-83
2024/01/04 03:56:54;;;;;;;9.60;9.10;;;7.10;99.90;;;;;;4871769;29;20801;-77
2024/01/04 03:59:21;;;;;;;10.10;9.50;;;7.10;99.90;;;;;;4875984;29;20201;-78
2024/01/04 04:01:48;;;;;;;10.80;10.00;;;7.10;99.90;;;;;;4878820;29;20213;-78
2024/01/04 04:04:16;;;;;;;10.40;9.80;;;7.10;99.90;;;;;;4878516;29;20251;-78
2024/01/04 04:06:44;;;;;;;10.30;9.70;;;7.00;99.90;;;;;;4877249;29;20215;-78
2024/01/04 04:09:10;;;;;;;10.43;9.83;;;7.00;99.90;;;;;;4871362;29;20228;-78
2024/01/04 04:11:37;;;;;;;10.57;9.97;;;7.00;99.90;;;;;;4877753;29;20266;-78
2024/01/04 04:14:04;;;;;;;10.93;10.13;;;7.00;99.90;;;;;;4893982;29;20256;-78
2024/01/04 04:16:31;;;;;;;11.70;11.10;;;7.00;99.90;;;;;;4882042;29;20227;-77
2024/01/04 04:18:57;;;;;;;12.20;11.50;;;7.00;99.90;;;;;;4876682;29;20234;-77
2024/01/04 04:21:25;;;;;;;10.83;10.03;;;6.90;99.90;;;;;;4878722;29;20208;-78
2024/01/04 04:23:53;;;;;;;10.83;10.13;;;6.90;99.90;;;;;;4878139;29;20260;-78
2024/01/04 04:26:20;;;;;;;11.30;10.60;;;6.90;99.90;;;;;;4876049;29;20205;-77
2024/01/04 04:28:47;;;;;;;11.90;11.10;;;6.90;99.90;;;;;;4875539;29;20227;-77
2024/01/04 04:31:14;;;;;;;11.10;10.50;;;6.90;99.90;;;;;;4869455;29;20201;-79
2024/01/04 04:33:41;;;;;;;11.00;10.40;;;6.90;99.90;;;;;;4871079;29;20610;-77
2024/01/04 04:36:08;;;;;;;11.30;10.60;;;6.90;99.90;;;;;;4883767;29;20621;-77
2024/01/04 04:38:35;;;;;;;11.07;10.43;;;7.00;99.90;;;;;;4878867;29;20604;-77
2024/01/04 04:41:04;;;;;;;11.23;10.60;;;7.00;99.90;;;;;;4872470;29;20222;-77
2024/01/04 04:43:31;;;;;;;11.40;10.60;;;7.00;99.90;;;;;;4892527;29;20255;-77
2024/01/04 04:45:58;;;;;;;11.20;10.50;;;7.00;99.90;;;;;;4875421;29;20256;-77
2024/01/04 04:48:25;;;;;;;11.60;10.83;;;7.00;99.90;;;;;;4880936;29;20204;-77
2024/01/04 04:50:53;;;;;;;11.37;10.77;;;7.10;99.90;;;;;;4880539;29;20209;-78
2024/01/04 04:53:20;;;;;;;11.60;10.80;;;7.10;99.90;;;;;;4878294;29;20284;-77
2024/01/04 04:55:47;;;;;;;11.00;10.27;;;7.10;99.90;;;;;;4878582;29;20691;-77
2024/01/04 04:58:15;;;;;;;11.33;10.63;;;7.10;99.90;;;;;;4877194;29;20260;-77
2024/01/04 05:00:42;;;;;;;12.23;11.53;;;7.10;99.90;;;;;;4872295;29;20262;-76
2024/01/04 05:03:09;;;;;;;11.63;11.03;;;7.10;99.90;;;;;;4878918;29;20228;-77
2024/01/04 05:05:36;;;;;;;11.97;10.97;;;7.10;99.90;;;;;;4878988;29;20204;-76
2024/01/04 05:08:04;;;;;;;11.40;10.80;;;7.20;99.90;;;;;;4876767;29;20224;-76
2024/01/04 05:10:31;;;;;;;11.90;11.10;;;7.20;99.90;;;;;;4872682;29;20229;-76
2024/01/04 05:12:58;;;;;;;12.20;11.40;;;7.20;99.90;;;;;;4878379;29;20266;-77
2024/01/04 05:15:26;;;;;;;11.90;11.07;;;7.20;99.90;;;;;;4879402;29;20212;-77
2024/01/04 05:17:53;;;;;;;12.30;11.60;;;7.20;99.90;;;;;;4878914;29;20676;-76
2024/01/04 05:20:20;;;;;;;12.20;11.40;;;7.20;99.90;;;;;;4878417;29;20264;-77
2024/01/04 05:22:47;;;;;;;12.63;11.83;;;7.10;99.90;;;;;;4876357;29;20224;-77
2024/01/04 05:25:15;;;;;;;12.20;11.40;;;7.20;99.90;;;;;;4893599;29;20262;-75
2024/01/04 05:27:41;;;;;;;11.10;10.40;;;7.10;99.90;;;;;;4881438;29;20638;-76
2024/01/04 05:30:10;;;;;;;11.07;10.37;;;7.10;99.90;;;;;;4880138;29;20297;-77
2024/01/04 05:32:38;;;;;;;10.67;10.10;;;7.10;99.90;;;;;;4882059;29;20205;-78
2024/01/04 05:35:06;;;;;;;11.00;10.30;;;7.10;99.90;;;;;;4879471;29;20208;-78
2024/01/04 05:37:33;;;;;;;10.70;10.10;;;7.10;99.90;;;;;;4882467;29;20200;-79
2024/01/04 05:40:00;;;;;;;10.93;10.13;;;7.10;99.90;;;;;;4885796;29;20199;-79
2024/01/04 05:42:27;;;;;;;10.90;10.10;;;7.10;99.90;;;;;;4884358;29;20232;-79
2024/01/04 05:44:54;;;;;;;11.23;10.57;;;7.10;99.90;;;;;;4888756;29;20201;-79
2024/01/04 05:47:23;;;;;;;11.30;10.60;;;7.10;99.90;;;;;;4882148;29;20202;-79
2024/01/04 05:49:51;;;;;;;11.50;10.70;;;7.10;99.90;;;;;;4881245;29;20213;-79
2024/01/04 05:52:18;;;;;;;10.90;10.30;;;7.10;99.90;;;;;;4882254;29;20205;-79
2024/01/04 05:54:45;;;;;;;10.70;10.10;;;7.10;99.90;;;;;;4881542;29;20257;-79
2024/01/04 05:57:12;;;;;;;10.73;10.13;;;7.10;99.90;;;;;;4895274;29;20200;-78
2024/01/04 05:59:38;;;;;;;11.13;10.47;;;7.10;99.90;;;;;;4885339;29;20256;-79
2024/01/04 06:02:05;;;;;;;11.10;10.43;;;7.10;99.90;;;;;;4885210;29;20261;-80
2024/01/04 06:04:32;;;;;;;10.97;10.37;;;7.10;99.90;;;;;;4873015;29;20290;-78
2024/01/04 06:07:00;;;;;;;10.77;10.17;;;7.10;99.90;;;;;;4891515;29;20203;-78
2024/01/04 06:09:27;;;;;;;11.10;10.33;;;7.10;99.90;;;;;;4879939;29;20709;-77
2024/01/04 06:11:54;;;;;;;11.00;10.30;;;7.10;99.90;;;;;;4882017;29;20648;-77
2024/01/04 06:14:20;;;;;;;10.20;9.60;;;7.10;99.90;;;;;;4879949;29;20297;-77
2024/01/04 06:16:47;;;;;;;10.73;9.83;;;7.10;99.90;;;;;;4878717;29;20971;-77
2024/01/04 06:19:14;;;;;;;10.60;9.90;;;7.10;99.90;;;;;;4878476;29;20568;-78
2024/01/04 06:21:41;;;;;;;10.80;10.20;;;7.10;99.90;;;;;;4878336;29;20209;-77
2024/01/04 06:24:09;;;;;;;10.63;9.90;;;7.10;99.90;;;;;;4879348;29;20659;-77
2024/01/04 06:26:36;;;;;;;11.10;10.30;;;7.10;99.90;;;;;;4878434;29;20232;-78
2024/01/04 06:29:03;;;;;;;10.77;9.97;;;7.10;99.90;;;;;;4879360;29;20232;-77
2024/01/04 06:31:30;;;;;;;11.00;10.20;;;7.10;99.90;;;;;;4879397;29;20205;-77
2024/01/04 06:33:56;;;;;;;11.37;10.60;;;7.00;99.90;;;;;;4872864;29;20225;-76
2024/01/04 06:36:23;;;;;;;10.80;10.10;;;7.00;99.90;;;;;;4880292;29;20213;-77
2024/01/04 06:38:50;;;;;;;10.67;9.90;;;7.00;99.90;;;;;;4890571;29;20201;-78
2024/01/04 06:41:19;;;;;;;10.43;9.80;;;7.00;99.90;;;;;;4876008;29;20287;-76
2024/01/04 06:43:46;;;;;;;11.00;10.20;;;7.00;99.90;;;;;;4890499;29;20302;-76
2024/01/04 06:46:15;;;;;;;10.60;10.00;;;7.00;99.90;;;;;;4878945;29;20279;-76
2024/01/04 06:48:42;;;;;;;10.80;10.00;;;7.00;99.90;;;;;;4878722;29;20233;-76
2024/01/04 06:51:09;;;;;;;11.30;10.50;;;7.00;99.90;;;;;;4876868;29;20244;-77
2024/01/04 06:53:36;;;;;;;11.90;11.20;;;6.90;99.90;;;;;;4878696;29;20241;-77
2024/01/04 06:56:03;;;;;;;11.53;10.83;;;7.00;99.90;;;;;;4878868;29;20205;-77
2024/01/04 06:58:32;;;;;;;11.07;10.43;;;6.90;99.90;;;;;;4882490;29;20204;-78
2024/01/04 07:00:58;;;;;;;11.17;10.37;;;6.90;99.90;;;;;;4884353;29;20201;-79
2024/01/04 07:03:26;;;;;;;11.10;10.40;;;7.00;99.90;;;;;;4885790;29;20704;-82
2024/01/04 07:05:53;;;;;;;11.10;10.40;;;7.20;99.90;;;;;;4881557;29;20213;-78
2024/01/04 07:08:20;;;;;;;12.90;11.80;;;7.10;99.90;;;;;;4878766;29;20211;-78
2024/01/04 07:10:47;;;;;;;11.37;10.57;;;7.10;99.90;;;;;;4896312;29;20212;-79
2024/01/04 07:13:14;;;;;;;11.70;10.93;;;7.00;99.90;;;;;;4879795;29;20237;-77
2024/01/04 07:15:42;;;;;;;11.30;10.50;;;6.90;99.90;;;;;;4879065;29;20274;-77
2024/01/04 07:18:09;;;;;;;12.00;11.30;;;6.90;99.90;;;;;;4877886;29;20219;-77
2024/01/04 07:20:36;;;;;;;11.20;10.50;;;6.90;99.90;;;;;;4879551;29;20208;-78
2024/01/04 07:23:03;;;;;;;11.77;10.97;;;6.80;99.90;;;;;;4877404;29;20260;-78
2024/01/04 07:25:30;;;;;;;12.50;11.70;;;6.80;99.90;;;;;;4879503;29;20295;-78
2024/01/04 07:27:57;;;;;;;12.77;12.00;;;6.80;99.90;;;;;;4881910;29;20796;-78
2024/01/04 07:30:24;;;;;;;12.90;12.07;;;6.80;99.90;;;;;;4879587;29;20220;-81
2024/01/04 07:32:52;;;;;;;12.90;12.00;;;6.80;99.90;;;;;;4877210;29;20217;-77
2024/01/04 07:35:23;;;;;;;12.83;11.93;;;6.80;99.90;;;;;;4877459;29;20590;-77
2024/01/04 07:37:50;;;;;;;12.57;11.60;;;6.80;99.90;;;;;;4877635;29;20216;-77
2024/01/04 07:40:16;;;;;;;12.20;11.50;;;6.90;99.90;;;;;;4877202;29;20635;-77
2024/01/04 07:42:43;;;;;;;12.80;11.80;;;6.90;99.90;;;;;;4876514;29;20236;-77
2024/01/04 07:45:10;;;;;;;11.97;11.20;;;6.90;99.90;;;;;;4878000;29;20205;-77
2024/01/04 07:47:37;;;;;;;12.10;11.40;;;7.00;99.90;;;;;;4878315;29;20224;-76
2024/01/04 07:50:06;;;;;;;12.10;11.40;;;7.00;99.90;;;;;;4873258;29;20275;-77
2024/01/04 07:52:33;;;;;;;12.60;11.90;;;7.00;99.90;;;;;;4880381;29;20232;-76
2024/01/04 07:55:00;;;;;;;11.57;10.77;;;7.00;99.90;;;;;;4880737;29;20676;-77
2024/01/04 07:57:27;;;;;;;11.57;10.90;;;7.10;99.90;;;;;;4878933;29;20201;-77
2024/01/04 07:59:54;;;;;;;13.00;11.77;;;7.10;99.90;;;;;;4878104;29;20207;-77
2024/01/04 08:02:22;;;;;;;12.43;11.20;;;7.00;99.90;;;;;;4868859;29;20740;-77
2024/01/04 08:04:48;;;;;;;12.33;11.33;;;7.00;99.90;;;;;;4876759;29;20679;-77
2024/01/04 08:07:18;;;;;;;12.03;11.30;;;6.90;99.90;;;;;;4870693;29;20213;-77
2024/01/04 08:09:45;;;;;;;11.83;11.03;;;6.90;99.90;;;;;;4876834;29;20225;-77
2024/01/04 08:12:12;;;;;;;11.80;10.63;;;6.90;99.90;;;;;;4877188;29;20215;-80
2024/01/04 08:14:39;;;;;;;11.17;10.47;;;6.90;99.90;;;;;;4893939;29;20232;-78
2024/01/04 08:17:06;;;;;;;11.63;10.83;;;6.90;99.90;;;;;;4893589;29;20830;-78
2024/01/04 08:19:32;;;;;;;11.47;10.77;;;6.90;99.90;;;;;;4883615;29;20261;-77
2024/01/04 08:21:59;;;;;;;11.50;10.70;;;7.00;99.90;;;;;;4882247;29;20268;-77
2024/01/04 08:24:28;;;;;;;11.60;10.90;;;7.10;99.90;;;;;;4887105;29;20216;-77
2024/01/04 08:26:55;;;;;;;11.60;10.70;;;7.10;99.90;;;;;;4884271;29;20204;-77
2024/01/04 08:29:22;;;;;;;12.10;11.30;;;7.20;99.90;;;;;;4884151;29;20200;-77
2024/01/04 08:31:49;;;;;;;11.23;10.53;;;7.20;99.90;;;;;;4883079;29;20239;-77
2024/01/04 08:34:15;;;;;;;11.90;11.10;;;7.30;99.90;;;;;;4882687;29;20233;-78
2024/01/04 08:36:42;;;;;;;12.10;11.20;;;7.50;99.90;;;;;;4878654;29;20291;-77
2024/01/04 08:39:10;;;;;;;11.83;11.03;;;7.80;99.90;;;;;;4880550;29;20217;-78
2024/01/04 08:41:38;;;;;;;3.37;2.90;;;8.10;99.90;;;;;;4889240;29;20192;-78
2024/01/04 08:44:05;;;;;;;3.37;2.90;;;8.30;99.90;;;;;;4886829;29;20227;-78
2024/01/04 08:46:37;;;;;;;11.10;10.27;;;8.40;99.90;;;;;;4883103;29;20228;-78
2024/01/04 08:49:05;;;;;;;3.87;2.90;;;8.50;99.90;;;;;;4882876;29;20220;-77
2024/01/04 08:51:32;;;;;;;4.73;2.90;;;8.70;99.90;;;;;;4883666;29;20281;-77
2024/01/04 08:53:58;;;;;;;3.50;3.13;;;8.90;99.90;;;;;;4883567;29;20221;-78
2024/01/04 08:56:25;;;;;;;5.47;3.10;;;9.00;99.90;;;;;;4875728;29;20249;-78
2024/01/04 08:58:53;;;;;;;8.10;5.10;;;9.10;99.90;;;;;;4884520;29;20209;-78
2024/01/04 09:01:20;;;;;;;6.00;5.50;;;9.30;99.90;;;;;;4884828;29;20224;-78
2024/01/04 09:03:48;;;;;;;6.43;5.50;;;9.30;99.90;;;;;;4882790;29;20232;-78
2024/01/04 09:06:15;;;;;;;5.40;5.00;;;9.40;99.90;;;;;;4885075;29;20194;-78
2024/01/04 09:08:42;;;;;;;5.23;4.73;;;9.50;99.90;;;;;;4883268;29;20214;-78
2024/01/04 09:11:09;;;;;;;5.60;5.10;;;9.60;99.90;;;;;;4882844;29;20246;-78
2024/01/04 09:13:36;;;;;;;6.27;5.67;;;9.70;99.90;;;;;;4883519;29;20709;-78
2024/01/04 09:16:06;;;;;;;4.43;3.37;;;9.60;99.90;;;;;;4884358;29;20825;-78
2024/01/04 09:18:33;;;;;;;4.70;2.60;;;9.40;99.90;;;;;;4883707;29;20206;-78
2024/01/04 09:21:00;;;;;;;3.93;2.60;;;9.40;99.90;;;;;;4883695;29;20204;-78
2024/01/04 09:23:26;;;;;;;3.03;2.73;;;9.40;99.90;;;;;;4883163;29;20225;-78
2024/01/04 09:25:53;;;;;;;2.93;2.63;;;9.40;99.90;;;;;;4880279;29;20668;-78
2024/01/04 09:28:23;;;;;;;3.17;2.70;;;9.50;99.90;;;;;;4881328;29;20676;-78
2024/01/04 09:30:50;;;;;;;2.57;2.37;;;9.50;99.90;;;;;;4888543;29;20635;-77
2024/01/04 09:33:23;;;;;;;4.03;2.80;;;9.40;99.90;;;;;;4876628;29;20229;-79
2024/01/04 09:35:50;;;;;;;2.80;2.60;;;9.30;99.90;;;;;;4877643;29;20202;-79
2024/01/04 09:38:16;;;;;;;4.83;2.90;;;9.20;99.90;;;;;;4888800;29;20202;-79
2024/01/04 09:40:43;;;;;;;4.40;2.80;;;9.30;99.90;;;;;;4881158;29;20211;-79
2024/01/04 09:43:14;;;;;;;3.80;2.60;;;9.40;99.90;;;;;;4879792;29;20249;-79
2024/01/04 09:45:44;;;;;;;4.43;2.90;;;9.60;99.90;;;;;;4873976;29;20685;-78
2024/01/04 09:48:13;;;;;;;2.93;2.60;;;9.60;99.90;;;;;;4878386;29;20202;-78
2024/01/04 09:50:42;;;;;;;4.43;2.73;;;9.50;99.90;;;;;;4874512;29;20313;-79
2024/01/04 09:53:11;;;;;;;6.33;2.70;;;9.40;99.90;;;;;;4876726;29;20273;-77
2024/01/04 09:55:40;;;;;;;3.33;2.47;;;9.30;99.90;;;;;;4870433;29;20270;-77
2024/01/04 09:58:09;;;;;;;4.50;2.70;;;9.20;99.90;;;;;;4877150;29;20197;-77
2024/01/04 10:00:36;;;;;;;4.03;2.73;;;9.20;99.90;;;;;;4882501;29;20548;-77
2024/01/04 10:03:06;;;;;;;3.27;2.70;;;9.20;99.90;;;;;;4886451;29;20247;-78
2024/01/04 10:05:35;;;;;;;4.43;3.00;;;9.20;99.90;;;;;;4870980;29;20689;-77
2024/01/04 10:08:13;;;;;;;6.43;2.73;;;9.10;99.90;;;;;;4889375;29;20248;-78
2024/01/04 10:10:43;;;;;;;2.80;2.43;;;9.20;99.90;;;;;;4877810;29;20232;-78
2024/01/04 10:13:11;;;;;;;5.97;3.93;;;9.20;99.90;;;;;;4878342;29;20719;-77
2024/01/04 10:15:37;;;;;;;7.87;7.10;;;9.30;99.90;;;;;;4878500;29;20208;-78
2024/01/04 10:18:08;;;;;;;6.63;6.00;;;9.30;99.90;;;;;;4893378;29;20201;-77
2024/01/04 10:20:34;;;;;;;7.53;7.00;;;9.20;99.90;;;;;;4878064;29;20294;-78
2024/01/04 10:23:01;;;;;;;5.17;4.73;;;9.20;99.90;;;;;;4880282;29;20281;-78
2024/01/04 10:25:29;;;;;;;5.23;3.23;;;9.10;99.90;;;;;;4877057;29;20241;-79
2024/01/04 10:27:58;;;;;;;6.70;5.50;;;9.10;99.90;;;;;;4876261;29;20212;-78
2024/01/04 10:30:25;;;;;;;3.67;3.27;;;9.10;99.90;;;;;;4871879;29;20251;-78
2024/01/04 10:32:52;;;;;;;4.23;3.70;;;9.20;99.90;;;;;;4884933;29;20281;-78
2024/01/04 10:35:26;;;;;;;3.97;3.60;;;9.20;99.90;;;;;;4882317;29;20558;-78
2024/01/04 10:38:01;;;;;;;7.83;6.63;;;9.40;99.90;;;;;;4874128;29;20264;-78
2024/01/04 10:40:29;;;;;;;6.57;6.00;;;9.50;99.90;;;;;;4877816;29;20253;-78
2024/01/04 10:42:56;;;;;;;3.90;3.57;;;9.60;99.90;;;;;;4871291;29;20225;-78
2024/01/04 10:45:29;;;;;;;5.00;3.20;;;9.60;99.90;;;;;;4878968;29;20197;-81
2024/01/04 10:47:56;;;;;;;3.90;2.70;;;9.60;99.90;;;;;;4876237;29;20261;-79
2024/01/04 10:50:24;;;;;;;5.17;3.10;;;9.60;99.90;;;;;;4882258;29;20245;-80
2024/01/04 10:52:54;;;;;;;6.53;6.00;;;9.60;99.90;;;;;;4880853;29;20218;-79
2024/01/04 10:55:22;;;;;;;6.53;5.90;;;9.50;99.90;;;;;;4883233;29;20246;-82
2024/01/04 10:57:51;;;;;;;5.40;5.00;;;9.60;99.90;;;;;;4891609;29;20202;-79
2024/01/04 11:00:18;;;;;;;5.83;3.10;;;9.70;99.90;;;;;;4880344;29;20225;-78
2024/01/04 11:02:46;;;;;;;6.30;3.77;;;9.70;99.90;;;;;;4883141;29;20225;-78
2024/01/04 11:05:13;;;;;;;4.53;4.17;;;9.80;99.90;;;;;;4881116;29;20263;-78
2024/01/04 11:07:40;;;;;;;4.97;4.40;;;9.80;99.90;;;;;;4879296;29;20207;-79
2024/01/04 11:10:09;;;;;;;6.20;5.67;;;9.80;99.90;;;;;;4881601;29;20274;-79
2024/01/04 11:12:36;;;;;;;10.00;9.33;;;9.90;99.90;;;;;;4890324;29;20244;-78
2024/01/04 11:15:06;;;;;;;9.67;8.97;;;10.10;99.90;;;;;;4884674;29;20210;-80
2024/01/04 11:17:51;;;;;;;9.67;8.87;;;10.30;99.90;;;;;;4880006;29;20248;-78
2024/01/04 11:20:27;;;;;;;10.40;9.50;;;10.40;99.90;;;;;;4877597;29;20218;-80
2024/01/04 11:23:20;;;;;;;10.43;9.83;;;10.50;99.90;;;;;;4881226;29;20227;-78
2024/01/04 11:26:05;;;;;;;10.10;9.40;;;10.70;99.90;;;;;;4885627;29;20237;-79
2024/01/04 11:28:33;;;;;;;10.37;9.73;;;10.80;99.90;;;;;;4881314;29;20211;-81
2024/01/04 11:31:01;;;;;;;9.97;9.27;;;11.00;99.90;;;;;;4876050;29;20224;-78
2024/01/04 11:33:28;;;;;;;5.90;5.30;;;10.90;99.90;;;;;;4873254;29;20223;-78
2024/01/04 11:35:56;;;;;;;10.60;9.60;;;10.90;99.90;;;;;;4893806;29;20203;-78
2024/01/04 11:38:32;;;;;;;9.40;8.63;;;10.80;99.90;;;;;;4876428;29;20233;-78
2024/01/04 11:40:58;;;;;;;9.60;9.00;;;10.80;99.90;;;;;;4877200;29;20210;-79
2024/01/04 11:43:35;;;;;;;10.50;9.80;;;10.90;99.90;;;;;;4889058;29;20269;-77
2024/01/04 11:46:17;;;;;;;6.40;5.90;;;10.90;99.90;;;;;;4888320;29;20338;-78
2024/01/04 11:49:00;;;;;;;4.07;3.47;;;10.90;99.90;;;;;;4872412;29;20203;-78
2024/01/04 11:51:32;;;;;;;6.33;5.87;;;11.00;99.90;;;;;;4886315;29;20284;-78
2024/01/04 11:53:59;;;;;;;6.83;6.07;;;11.00;99.90;;;;;;4878038;29;20227;-79
2024/01/04 11:56:27;;;;;;;4.17;3.83;;;11.20;99.90;;;;;;4891322;29;20227;-79
2024/01/04 11:58:53;;;;;;;2.80;2.50;;;11.20;99.90;;;;;;4879892;29;20209;-79
2024/01/04 12:01:24;;;;;;;5.90;3.03;;;11.10;99.90;;;;;;4879089;29;20205;-78
2024/01/04 12:03:52;;;;;;;2.97;2.77;;;10.90;99.90;;;;;;4877493;29;20720;-79
2024/01/04 12:06:20;;;;;;;9.93;9.23;;;10.80;99.90;;;;;;4878394;29;20207;-79
2024/01/04 12:08:48;;;;;;;9.77;9.00;;;10.70;99.90;;;;;;4878912;29;20207;-78
2024/01/04 12:11:19;;;;;;;9.60;8.80;;;10.70;99.90;;;;;;4877964;29;20348;-78
2024/01/04 12:13:47;;;;;;;9.23;8.73;;;10.70;99.90;;;;;;4871468;29;20229;-78
2024/01/04 12:16:14;;;;;;;9.80;9.10;;;10.80;99.90;;;;;;4873172;29;20224;-78
2024/01/04 12:18:42;;;;;;;4.83;4.53;;;10.90;99.90;;;;;;4872851;29;20312;-79
2024/01/04 12:21:10;;;;;;;3.07;2.87;;;11.00;99.90;;;;;;4872162;29;20203;-79
2024/01/04 12:23:37;;;;;;;5.53;4.90;;;11.10;99.90;;;;;;4877825;29;20234;-78
2024/01/04 12:26:05;;;;;;;3.73;3.40;;;11.20;99.90;;;;;;4875490;29;20679;-78
2024/01/04 12:28:34;;;;;;;5.13;4.50;;;11.20;99.90;;;;;;4888297;29;20311;-77
2024/01/04 12:31:01;;;;;;;5.80;5.30;;;11.20;99.90;;;;;;4869872;29;20325;-78
2024/01/04 12:33:30;;;;;;;5.00;3.93;;;11.20;99.90;;;;;;4878016;29;20224;-79
2024/01/04 12:35:59;;;;;;;10.83;9.93;;;11.20;99.90;;;;;;4872364;29;20695;-78
2024/01/04 12:38:27;;;;;;;5.00;4.00;;;11.10;99.90;;;;;;4886947;29;20219;-78
2024/01/04 12:40:56;;;;;;;4.23;3.83;;;11.10;99.90;;;;;;4885289;29;20661;-80
2024/01/04 12:43:24;;;;;;;9.10;8.40;;;11.10;99.90;;;;;;4879605;29;20231;-79
2024/01/04 12:46:02;;;;;;;9.27;8.60;;;10.90;99.90;;;;;;4882313;29;20203;-79
2024/01/04 12:48:29;;;;;;;10.47;9.73;;;10.90;99.90;;;;;;4881463;29;20210;-78
2024/01/04 12:51:05;;;;;;;9.43;8.47;;;10.60;99.90;;;;;;4875701;29;20748;-76